createdAt,value
2018-03-24T00:01:01.062Z,2.23
2018-03-24T00:02:29.101Z,2.20
2018-03-24T00:03:55.186Z,2.22
2018-03-24T00:05:23.295Z,2.23
2018-03-24T00:06:50.492Z,2.22
2018-03-24T00:08:17.760Z,2.26
2018-03-24T00:09:44.770Z,2.30
2018-03-24T00:11:10.958Z,2.28
2018-03-24T00:12:38.247Z,2.28
2018-03-24T00:14:05.458Z,2.30
2018-03-24T00:15:32.596Z,2.30
2018-03-24T00:16:59.870Z,2.29
2018-03-24T00:18:28.061Z,2.33
2018-03-24T00:19:55.202Z,2.34
2018-03-24T00:21:21.293Z,2.35
2018-03-24T00:22:49.458Z,2.36
2018-03-24T00:24:15.577Z,2.38
2018-03-24T00:25:43.438Z,2.40
2018-03-24T00:27:10.800Z,2.36
2018-03-24T00:28:37.048Z,2.33
2018-03-24T00:30:05.091Z,2.29
2018-03-24T00:31:31.247Z,2.26
2018-03-24T00:32:59.341Z,2.26
2018-03-24T00:34:26.473Z,2.24
2018-03-24T00:35:52.557Z,2.28
2018-03-24T00:37:20.665Z,2.29
2018-03-24T00:38:46.917Z,2.34
2018-03-24T00:40:15.040Z,2.39
2018-03-24T00:41:42.156Z,2.45
2018-03-24T00:43:08.117Z,2.52
2018-03-24T00:44:36.313Z,2.46
2018-03-24T00:46:02.527Z,2.40
2018-03-24T00:47:30.720Z,2.43
2018-03-24T00:48:57.053Z,2.47
2018-03-24T00:50:24.279Z,2.52
2018-03-24T00:51:52.610Z,2.53
2018-03-24T00:53:19.813Z,2.51
2018-03-24T00:54:46.889Z,2.47
2018-03-24T00:56:13.035Z,2.51
2018-03-24T00:57:40.088Z,2.49
2018-03-24T00:59:08.263Z,2.48
2018-03-24T01:00:35.461Z,2.51
2018-03-24T01:02:02.766Z,2.47
2018-03-24T01:03:30.020Z,2.49
2018-03-24T01:04:56.210Z,2.55
2018-03-24T01:06:24.253Z,2.59
2018-03-24T01:07:51.393Z,2.55
2018-03-24T01:09:17.605Z,2.56
2018-03-24T01:10:44.939Z,2.57
2018-03-24T01:12:12.046Z,2.54
2018-03-24T01:13:40.245Z,2.57
2018-03-24T01:15:07.261Z,2.53
2018-03-24T01:16:34.490Z,2.46
2018-03-24T01:18:00.598Z,2.39
2018-03-24T01:19:28.808Z,2.41
2018-03-24T01:20:55.037Z,2.46
2018-03-24T01:22:22.322Z,2.51
2018-03-24T01:23:50.471Z,2.57
2018-03-24T01:25:17.747Z,2.61
2018-03-24T01:26:44.903Z,2.65
2018-03-24T01:28:11.076Z,2.68
2018-03-24T01:29:38.265Z,2.71
2018-03-24T01:31:05.450Z,2.69
2018-03-24T01:32:32.798Z,2.65
2018-03-24T01:34:01.134Z,2.64
2018-03-24T01:35:28.245Z,2.66
2018-03-24T01:36:55.324Z,2.63
2018-03-24T01:38:21.470Z,2.65
2018-03-24T01:39:49.624Z,2.65
2018-03-24T01:41:15.916Z,2.65
2018-03-24T01:42:44.034Z,2.65
2018-03-24T01:44:09.957Z,2.66
2018-03-24T01:45:37.078Z,2.69
2018-03-24T01:47:05.201Z,2.67
2018-03-24T01:48:31.417Z,2.63
2018-03-24T01:49:58.616Z,2.62
2018-03-24T01:51:25.630Z,2.61
2018-03-24T01:52:53.868Z,2.64
2018-03-24T01:54:20.117Z,2.68
2018-03-24T01:55:48.173Z,2.69
2018-03-24T01:57:15.288Z,2.70
2018-03-24T01:58:42.411Z,2.71
2018-03-24T02:00:08.700Z,2.72
2018-03-24T02:01:36.918Z,2.75
2018-03-24T02:03:04.097Z,2.77
2018-03-24T02:04:31.320Z,2.78
2018-03-24T02:05:57.457Z,2.76
2018-03-24T02:07:24.576Z,2.77
2018-03-24T02:08:52.977Z,2.75
2018-03-24T02:10:18.752Z,2.75
2018-03-24T02:11:45.899Z,2.79
2018-03-24T02:13:12.005Z,2.81
2018-03-24T02:14:38.923Z,2.79
2018-03-24T02:16:07.086Z,2.77
2018-03-24T02:17:34.484Z,2.76
2018-03-24T02:19:01.577Z,2.78
2018-03-24T02:20:28.501Z,2.78
2018-03-24T02:21:54.740Z,2.80
2018-03-24T02:23:22.023Z,2.78
2018-03-24T02:24:49.252Z,2.78
2018-03-24T02:26:17.282Z,2.73
2018-03-24T02:27:44.410Z,2.73
2018-03-24T02:29:11.402Z,2.75
2018-03-24T02:30:37.660Z,2.70
2018-03-24T02:32:05.051Z,2.66
2018-03-24T02:33:32.321Z,2.66
2018-03-24T02:34:59.531Z,2.66
2018-03-24T02:36:27.804Z,2.62
2018-03-24T02:37:53.996Z,2.63
2018-03-24T02:39:21.380Z,2.58
2018-03-24T02:40:48.594Z,2.58
2018-03-24T02:42:16.835Z,2.59
2018-03-24T02:43:43.953Z,2.56
2018-03-24T02:45:10.004Z,2.57
2018-03-24T02:46:38.189Z,2.56
2018-03-24T02:48:04.499Z,2.55
2018-03-24T02:49:32.724Z,2.53
2018-03-24T02:50:59.821Z,2.42
2018-03-24T02:52:27.033Z,2.36
2018-03-24T02:53:53.172Z,2.27
2018-03-24T02:55:20.231Z,2.30
2018-03-24T02:56:47.389Z,2.33
2018-03-24T02:58:14.500Z,2.31
2018-03-24T02:59:41.661Z,2.22
2018-03-24T03:01:08.866Z,2.19
2018-03-24T03:02:35.933Z,2.25
2018-03-24T03:04:04.141Z,2.25
2018-03-24T03:05:31.408Z,2.24
2018-03-24T03:06:58.616Z,2.28
2018-03-24T03:08:24.982Z,2.30
2018-03-24T03:09:52.190Z,2.33
2018-03-24T03:11:20.103Z,2.36
2018-03-24T03:12:47.130Z,2.36
2018-03-24T03:14:14.234Z,2.37
2018-03-24T03:15:41.334Z,2.41
2018-03-24T03:17:07.490Z,2.46
2018-03-24T03:18:34.739Z,2.40
2018-03-24T03:20:02.022Z,2.33
2018-03-24T03:21:30.075Z,2.31
2018-03-24T03:22:57.370Z,2.30
2018-03-24T03:24:24.451Z,2.34
2018-03-24T03:25:51.675Z,2.40
2018-03-24T03:27:17.884Z,2.45
2018-03-24T03:28:46.173Z,2.48
2018-03-24T03:30:12.317Z,2.51
2018-03-24T03:31:40.569Z,2.53
2018-03-24T03:33:06.854Z,2.57
2018-03-24T03:34:34.031Z,2.60
2018-03-24T03:36:01.343Z,2.64
2018-03-24T03:37:28.519Z,2.66
2018-03-24T03:38:55.715Z,2.69
2018-03-24T03:40:22.858Z,2.71
2018-03-24T03:41:51.156Z,2.71
2018-03-24T03:43:17.303Z,2.72
2018-03-24T03:44:45.529Z,2.72
2018-03-24T03:46:12.651Z,2.72
2018-03-24T03:47:38.953Z,2.73
2018-03-24T03:49:07.157Z,2.74
2018-03-24T03:50:33.372Z,2.74
2018-03-24T03:52:00.686Z,2.75
2018-03-24T03:53:27.762Z,2.76
2018-03-24T03:54:55.087Z,2.76
2018-03-24T03:56:23.361Z,2.77
2018-03-24T03:57:49.564Z,2.75
2018-03-24T03:59:16.618Z,2.73
2018-03-24T04:00:43.840Z,2.74
2018-03-24T04:02:11.971Z,2.74
2018-03-24T04:03:38.105Z,2.74
2018-03-24T04:05:05.323Z,2.73
2018-03-24T04:06:33.519Z,2.74
2018-03-24T04:08:00.734Z,2.74
2018-03-24T04:09:26.878Z,2.75
2018-03-24T04:10:55.094Z,2.75
2018-03-24T04:12:21.133Z,2.73
2018-03-24T04:13:48.278Z,2.73
2018-03-24T04:15:16.372Z,2.73
2018-03-24T04:16:43.481Z,2.72
2018-03-24T04:18:10.889Z,2.73
2018-03-24T04:19:37.111Z,2.72
2018-03-24T04:21:04.316Z,2.66
2018-03-24T04:22:32.597Z,2.67
2018-03-24T04:23:58.741Z,2.69
2018-03-24T04:25:26.877Z,2.72
2018-03-24T04:26:53.070Z,2.73
2018-03-24T04:28:21.356Z,2.73
2018-03-24T04:29:48.638Z,2.73
2018-03-24T04:31:14.883Z,2.75
2018-03-24T04:32:42.754Z,2.74
2018-03-24T04:34:08.976Z,2.75
2018-03-24T04:35:36.282Z,2.74
2018-03-24T04:37:04.362Z,2.74
2018-03-24T04:38:31.664Z,2.71
2018-03-24T04:39:57.813Z,2.71
2018-03-24T04:41:25.180Z,2.72
2018-03-24T04:42:52.398Z,2.72
2018-03-24T04:44:19.595Z,2.72
2018-03-24T04:45:47.873Z,2.72
2018-03-24T04:47:13.978Z,2.72
2018-03-24T04:48:41.933Z,2.70
2018-03-24T04:50:08.213Z,2.70
2018-03-24T04:51:35.400Z,2.68
2018-03-24T04:53:02.641Z,2.68
2018-03-24T04:54:29.964Z,2.69
2018-03-24T04:55:58.192Z,2.69
2018-03-24T04:57:25.462Z,2.68
2018-03-24T04:58:52.686Z,2.68
2018-03-24T05:00:18.830Z,2.69
2018-03-24T05:01:46.848Z,2.68
2018-03-24T05:03:13.947Z,2.68
2018-03-24T05:04:39.935Z,2.69
2018-03-24T05:06:07.172Z,2.68
2018-03-24T05:07:35.354Z,2.67
2018-03-24T05:09:02.634Z,2.69
2018-03-24T05:10:28.698Z,2.70
2018-03-24T05:11:55.864Z,2.66
2018-03-24T05:13:23.004Z,2.59
2018-03-24T05:14:50.250Z,2.49
2018-03-24T05:16:17.409Z,2.38
2018-03-24T05:17:44.600Z,2.36
2018-03-24T05:19:11.825Z,2.38
2018-03-24T05:20:39.990Z,2.38
2018-03-24T05:22:06.290Z,2.35
2018-03-24T05:23:34.454Z,2.36
2018-03-24T05:25:01.643Z,2.40
2018-03-24T05:26:28.905Z,2.45
2018-03-24T05:27:55.080Z,2.44
2018-03-24T05:29:22.205Z,2.41
2018-03-24T05:30:49.251Z,2.34
2018-03-24T05:32:17.506Z,2.30
2018-03-24T05:33:43.661Z,2.27
2018-03-24T05:35:10.827Z,2.29
2018-03-24T05:36:38.882Z,2.31
2018-03-24T05:38:05.037Z,2.25
2018-03-24T05:39:32.062Z,2.19
2018-03-24T05:40:59.196Z,2.14
2018-03-24T05:42:26.328Z,2.06
2018-03-24T05:43:53.286Z,2.07
2018-03-24T05:45:21.438Z,2.06
2018-03-24T05:46:47.537Z,2.09
2018-03-24T05:48:15.597Z,2.14
2018-03-24T05:49:41.835Z,2.17
2018-03-24T05:51:08.962Z,2.22
2018-03-24T05:52:37.191Z,2.16
2018-03-24T05:54:03.304Z,2.15
2018-03-24T05:55:31.621Z,2.12
2018-03-24T05:56:58.869Z,2.06
2018-03-24T05:58:25.947Z,1.94
2018-03-24T05:59:52.024Z,1.94
2018-03-24T06:01:20.080Z,2.01
2018-03-24T06:02:47.270Z,2.06
2018-03-24T06:04:13.402Z,2.02
2018-03-24T06:05:40.549Z,2.03
2018-03-24T06:07:07.767Z,2.03
2018-03-24T06:08:34.976Z,2.07
2018-03-24T06:10:03.050Z,2.14
2018-03-24T06:11:29.197Z,2.21
2018-03-24T06:12:56.456Z,2.27
2018-03-24T06:14:23.601Z,2.32
2018-03-24T06:15:50.666Z,2.35
2018-03-24T06:17:17.760Z,2.34
2018-03-24T06:18:44.854Z,2.40
2018-03-24T06:20:13.057Z,2.38
2018-03-24T06:21:39.461Z,2.34
2018-03-24T06:23:06.508Z,2.32
2018-03-24T06:24:33.734Z,2.23
2018-03-24T06:26:00.923Z,2.19
2018-03-24T06:27:29.191Z,2.18
2018-03-24T06:28:55.209Z,2.23
2018-03-24T06:30:23.440Z,2.20
2018-03-24T06:31:49.639Z,2.28
2018-03-24T06:33:17.838Z,2.31
2018-03-24T06:34:43.913Z,2.30
2018-03-24T06:36:12.074Z,2.26
2018-03-24T06:37:39.177Z,2.24
2018-03-24T06:39:06.519Z,2.24
2018-03-24T06:40:32.721Z,2.32
2018-03-24T06:42:00.050Z,2.43
2018-03-24T06:43:28.075Z,2.52
2018-03-24T06:44:54.223Z,2.58
2018-03-24T06:46:21.128Z,2.58
2018-03-24T06:47:49.269Z,2.51
2018-03-24T06:49:16.529Z,2.45
2018-03-24T06:50:43.552Z,2.52
2018-03-24T06:52:09.964Z,2.60
2018-03-24T06:53:38.134Z,2.70
2018-03-24T06:55:04.306Z,2.77
2018-03-24T06:56:31.518Z,2.74
2018-03-24T06:57:58.749Z,2.72
2018-03-24T06:59:25.914Z,2.65
2018-03-24T07:00:54.180Z,2.62
2018-03-24T07:02:21.312Z,2.61
2018-03-24T07:03:47.379Z,2.59
2018-03-24T07:05:15.616Z,2.61
2018-03-24T07:06:42.712Z,2.59
2018-03-24T07:08:10.027Z,2.68
2018-03-24T07:09:37.219Z,2.79
2018-03-24T07:11:04.539Z,2.80
2018-03-24T07:12:31.794Z,2.76
2018-03-24T07:13:58.932Z,2.75
2018-03-24T07:15:25.097Z,2.82
2018-03-24T07:16:52.256Z,2.89
2018-03-24T07:18:20.345Z,2.96
2018-03-24T07:19:47.575Z,2.97
2018-03-24T07:21:13.707Z,2.97
2018-03-24T07:22:40.902Z,3.04
2018-03-24T07:24:09.020Z,3.13
2018-03-24T07:25:36.157Z,3.17
2018-03-24T07:27:02.402Z,3.19
2018-03-24T07:28:30.577Z,3.23
2018-03-24T07:29:56.750Z,3.31
2018-03-24T07:31:23.886Z,3.33
2018-03-24T07:32:52.179Z,3.41
2018-03-24T07:34:18.372Z,3.48
2018-03-24T07:35:46.609Z,3.56
2018-03-24T07:37:12.600Z,3.64
2018-03-24T07:38:39.799Z,3.72
2018-03-24T07:40:06.945Z,3.76
2018-03-24T07:41:34.043Z,3.71
2018-03-24T07:43:01.164Z,3.73
2018-03-24T07:44:29.388Z,3.64
2018-03-24T07:45:55.602Z,3.59
2018-03-24T07:47:22.831Z,3.57
2018-03-24T07:48:49.840Z,3.65
2018-03-24T07:50:18.078Z,3.62
2018-03-24T07:51:45.392Z,3.59
2018-03-24T07:53:11.468Z,3.57
2018-03-24T07:54:38.553Z,3.54
2018-03-24T07:56:05.702Z,3.58
2018-03-24T07:57:32.868Z,3.52
2018-03-24T07:59:00.175Z,3.52
2018-03-24T08:00:27.314Z,3.50
2018-03-24T08:01:54.646Z,3.53
2018-03-24T08:03:22.715Z,3.59
2018-03-24T08:04:49.950Z,3.63
2018-03-24T08:06:17.157Z,3.69
2018-03-24T08:07:44.382Z,3.72
2018-03-24T08:09:10.546Z,3.81
2018-03-24T08:10:38.755Z,3.82
2018-03-24T08:12:05.985Z,3.84
2018-03-24T08:13:32.245Z,3.90
2018-03-24T08:15:00.511Z,3.93
2018-03-24T08:16:26.847Z,3.96
2018-03-24T08:17:55.010Z,4.05
2018-03-24T08:19:21.431Z,4.13
2018-03-24T08:20:49.466Z,4.21
2018-03-24T08:22:16.666Z,4.30
2018-03-24T08:23:42.938Z,4.43
2018-03-24T08:25:11.031Z,4.48
2018-03-24T08:26:37.240Z,4.46
2018-03-24T08:28:05.431Z,4.51
2018-03-24T08:29:31.639Z,4.61
2018-03-24T08:30:58.907Z,4.68
2018-03-24T08:32:27.219Z,4.78
2018-03-24T08:33:54.160Z,4.84
2018-03-24T08:35:20.675Z,4.89
2018-03-24T08:36:47.860Z,4.94
2018-03-24T08:38:17.929Z,4.95
2018-03-24T08:39:41.980Z,5.02
2018-03-24T08:41:10.146Z,5.07
2018-03-24T08:42:36.388Z,5.11
2018-03-24T08:44:03.770Z,5.14
2018-03-24T08:45:31.086Z,5.22
2018-03-24T08:46:58.124Z,5.27
2018-03-24T08:48:25.430Z,5.31
2018-03-24T08:49:53.752Z,5.36
2018-03-24T08:51:19.817Z,5.42
2018-03-24T08:52:47.172Z,5.43
2018-03-24T08:54:14.374Z,5.48
2018-03-24T08:55:41.560Z,5.51
2018-03-24T08:57:09.759Z,5.43
2018-03-24T08:58:35.953Z,5.34
2018-03-24T09:00:03.265Z,5.35
2018-03-24T09:01:31.611Z,5.43
2018-03-24T09:02:57.912Z,5.51
2018-03-24T09:04:26.177Z,5.61
2018-03-24T09:05:52.504Z,5.71
2018-03-24T09:07:19.807Z,5.82
2018-03-24T09:08:48.154Z,5.91
2018-03-24T09:10:15.256Z,5.95
2018-03-24T09:11:41.339Z,5.98
2018-03-24T09:13:08.642Z,6.06
2018-03-24T09:14:35.964Z,6.12
2018-03-24T09:16:04.238Z,6.14
2018-03-24T09:17:31.537Z,6.18
2018-03-24T09:18:58.652Z,6.25
2018-03-24T09:20:25.874Z,6.32
2018-03-24T09:21:52.058Z,6.39
2018-03-24T09:23:20.409Z,6.44
2018-03-24T09:24:46.618Z,6.49
2018-03-24T09:26:14.937Z,6.54
2018-03-24T09:27:41.981Z,6.57
2018-03-24T09:29:08.336Z,6.53
2018-03-24T09:30:36.484Z,6.57
2018-03-24T09:32:02.831Z,6.59
2018-03-24T09:33:31.032Z,6.64
2018-03-24T09:34:57.289Z,6.69
2018-03-24T09:36:24.553Z,6.75
2018-03-24T09:37:52.798Z,6.81
2018-03-24T09:39:18.994Z,6.87
2018-03-24T09:40:46.334Z,6.93
2018-03-24T09:42:13.326Z,6.98
2018-03-24T09:43:40.159Z,7.06
2018-03-24T09:45:07.364Z,7.04
2018-03-24T09:46:34.645Z,7.08
2018-03-24T09:48:02.929Z,7.12
2018-03-24T09:49:29.221Z,7.15
2018-03-24T09:50:57.238Z,7.17
2018-03-24T09:52:24.396Z,7.10
2018-03-24T09:53:50.534Z,7.15
2018-03-24T09:55:17.818Z,7.05
2018-03-24T09:56:45.105Z,7.05
2018-03-24T09:58:12.308Z,7.07
2018-03-24T09:59:39.653Z,7.11
2018-03-24T10:01:06.908Z,7.18
2018-03-24T10:02:34.262Z,7.25
2018-03-24T10:04:01.523Z,7.24
2018-03-24T10:05:28.771Z,7.30
2018-03-24T10:06:56.178Z,7.37
2018-03-24T10:08:24.527Z,7.39
2018-03-24T10:09:51.926Z,7.40
2018-03-24T10:11:18.398Z,7.38
2018-03-24T10:12:45.607Z,7.41
2018-03-24T10:14:12.921Z,7.48
2018-03-24T10:15:40.115Z,7.55
2018-03-24T10:17:07.296Z,7.62
2018-03-24T10:18:34.495Z,7.69
2018-03-24T10:20:01.706Z,7.74
2018-03-24T10:21:29.999Z,7.79
2018-03-24T10:22:56.339Z,7.86
2018-03-24T10:24:23.615Z,7.93
2018-03-24T10:25:51.020Z,7.97
2018-03-24T10:27:19.122Z,7.94
2018-03-24T10:28:45.499Z,7.97
2018-03-24T10:30:12.831Z,7.97
2018-03-24T10:31:39.883Z,7.94
2018-03-24T10:33:07.094Z,7.99
2018-03-24T10:34:34.239Z,8.05
2018-03-24T10:36:01.516Z,8.09
2018-03-24T10:37:28.881Z,8.12
2018-03-24T10:38:56.124Z,8.15
2018-03-24T10:40:23.273Z,8.17
2018-03-24T10:41:50.632Z,8.18
2018-03-24T10:43:19.007Z,8.18
2018-03-24T10:44:45.068Z,8.17
2018-03-24T10:46:12.457Z,8.25
2018-03-24T10:47:39.754Z,8.34
2018-03-24T10:49:08.238Z,8.41
2018-03-24T10:50:35.624Z,8.48
2018-03-24T10:52:01.932Z,8.45
2018-03-24T10:53:29.197Z,8.48
2018-03-24T10:54:56.656Z,8.35
2018-03-24T10:56:23.963Z,8.23
2018-03-24T10:57:51.339Z,8.24
2018-03-24T10:59:19.764Z,8.35
2018-03-24T11:00:45.824Z,8.46
2018-03-24T11:02:13.233Z,8.54
2018-03-24T11:03:40.306Z,8.55
2018-03-24T11:05:07.609Z,8.62
2018-03-24T11:06:34.825Z,8.62
2018-03-24T11:08:02.236Z,8.56
2018-03-24T11:09:29.526Z,8.60
2018-03-24T11:10:56.789Z,8.60
2018-03-24T11:12:25.101Z,8.66
2018-03-24T11:13:51.315Z,8.77
2018-03-24T11:15:18.675Z,8.86
2018-03-24T11:16:46.017Z,8.95
2018-03-24T11:18:13.244Z,9.04
2018-03-24T11:19:40.428Z,9.14
2018-03-24T11:21:07.566Z,9.28
2018-03-24T11:22:35.756Z,9.42
2018-03-24T11:24:02.080Z,9.54
2018-03-24T11:25:29.320Z,9.68
2018-03-24T11:26:56.790Z,9.67
2018-03-24T11:28:23.806Z,9.46
2018-03-24T11:29:51.121Z,9.27
2018-03-24T11:31:18.483Z,9.16
2018-03-24T11:32:45.831Z,9.10
2018-03-24T11:34:14.110Z,9.16
2018-03-24T11:35:41.392Z,9.29
2018-03-24T11:37:07.701Z,9.54
2018-03-24T11:38:35.976Z,9.80
2018-03-24T11:40:02.089Z,9.88
2018-03-24T11:41:29.463Z,9.97
2018-03-24T11:42:57.745Z,9.99
2018-03-24T11:44:24.187Z,10.16
2018-03-24T11:45:51.453Z,10.12
2018-03-24T11:47:19.935Z,9.97
2018-03-24T11:48:46.190Z,9.80
2018-03-24T11:50:13.529Z,9.81
2018-03-24T11:51:40.702Z,10.10
2018-03-24T11:53:07.964Z,10.39
2018-03-24T11:54:35.307Z,10.41
2018-03-24T11:56:02.581Z,10.36
2018-03-24T11:57:29.877Z,10.46
2018-03-24T11:58:57.377Z,10.73
2018-03-24T12:00:24.547Z,10.81
2018-03-24T12:01:52.761Z,10.79
2018-03-24T12:03:20.222Z,11.01
2018-03-24T12:04:47.500Z,11.20
2018-03-24T12:06:13.870Z,11.16
2018-03-24T12:07:41.025Z,11.01
2018-03-24T12:09:14.536Z,10.81
2018-03-24T12:10:35.849Z,10.69
2018-03-24T12:12:03.278Z,10.53
2018-03-24T12:13:30.496Z,10.66
2018-03-24T12:14:57.912Z,10.87
2018-03-24T12:16:25.360Z,11.19
2018-03-24T12:17:52.625Z,11.41
2018-03-24T12:19:20.068Z,11.67
2018-03-24T12:20:47.362Z,11.53
2018-03-24T12:22:15.704Z,11.55
2018-03-24T12:23:41.882Z,11.75
2018-03-24T12:25:09.211Z,11.95
2018-03-24T12:26:36.688Z,12.01
2018-03-24T12:28:05.194Z,11.75
2018-03-24T12:29:31.354Z,11.83
2018-03-24T12:30:58.648Z,11.93
2018-03-24T12:32:26.133Z,11.76
2018-03-24T12:33:53.406Z,11.54
2018-03-24T12:35:21.694Z,11.40
2018-03-24T12:36:47.938Z,11.58
2018-03-24T12:38:15.254Z,11.55
2018-03-24T12:39:42.350Z,11.80
2018-03-24T12:41:10.642Z,11.98
2018-03-24T12:42:37.030Z,12.03
2018-03-24T12:44:04.408Z,12.02
2018-03-24T12:45:31.776Z,12.22
2018-03-24T12:47:00.197Z,12.18
2018-03-24T12:48:27.532Z,11.95
2018-03-24T12:49:54.963Z,11.60
2018-03-24T12:51:21.192Z,11.50
2018-03-24T12:52:49.469Z,11.53
2018-03-24T12:54:15.652Z,11.48
2018-03-24T12:55:42.956Z,11.35
2018-03-24T12:57:10.305Z,11.47
2018-03-24T12:58:37.453Z,11.69
2018-03-24T13:00:04.809Z,11.59
2018-03-24T13:01:32.071Z,11.40
2018-03-24T13:02:59.561Z,11.33
2018-03-24T13:04:27.917Z,11.37
2018-03-24T13:05:54.189Z,11.35
2018-03-24T13:07:21.594Z,11.21
2018-03-24T13:08:48.963Z,11.21
2018-03-24T13:10:16.404Z,11.41
2018-03-24T13:11:43.853Z,11.30
2018-03-24T13:13:12.120Z,11.38
2018-03-24T13:14:38.572Z,11.52
2018-03-24T13:16:05.978Z,11.45
2018-03-24T13:17:33.288Z,11.24
2018-03-24T13:19:00.664Z,11.27
2018-03-24T13:20:28.045Z,11.51
2018-03-24T13:21:55.464Z,11.35
2018-03-24T13:23:23.912Z,11.38
2018-03-24T13:24:51.272Z,11.43
2018-03-24T13:26:18.532Z,11.60
2018-03-24T13:27:45.865Z,11.64
2018-03-24T13:29:11.985Z,11.62
2018-03-24T13:30:40.216Z,11.65
2018-03-24T13:32:07.441Z,11.68
2018-03-24T13:33:33.612Z,11.66
2018-03-24T13:35:01.008Z,11.53
2018-03-24T13:36:28.265Z,11.41
2018-03-24T13:37:55.663Z,11.19
2018-03-24T13:39:23.004Z,11.18
2018-03-24T13:40:50.276Z,11.30
2018-03-24T13:42:17.425Z,11.31
2018-03-24T13:43:44.927Z,11.26
2018-03-24T13:45:12.119Z,11.27
2018-03-24T13:46:40.399Z,11.11
2018-03-24T13:48:06.788Z,11.03
2018-03-24T13:49:35.176Z,11.07
2018-03-24T13:51:02.470Z,11.03
2018-03-24T13:52:28.662Z,10.92
2018-03-24T13:53:56.138Z,10.82
2018-03-24T13:55:23.366Z,10.83
2018-03-24T13:56:50.809Z,10.86
2018-03-24T13:58:18.083Z,10.88
2018-03-24T13:59:45.419Z,10.78
2018-03-24T14:01:12.751Z,10.83
2018-03-24T14:02:40.271Z,10.69
2018-03-24T14:04:07.463Z,10.64
2018-03-24T14:05:34.756Z,10.64
2018-03-24T14:07:03.060Z,10.57
2018-03-24T14:08:29.409Z,10.54
2018-03-24T14:09:56.548Z,10.51
2018-03-24T14:11:24.824Z,10.46
2018-03-24T14:12:51.018Z,10.33
2018-03-24T14:14:19.393Z,10.23
2018-03-24T14:15:46.788Z,10.12
2018-03-24T14:17:14.161Z,10.06
2018-03-24T14:18:41.419Z,10.01
2018-03-24T14:20:07.778Z,10.02
2018-03-24T14:21:35.082Z,10.04
2018-03-24T14:23:02.443Z,10.02
2018-03-24T14:24:30.830Z,10.00
2018-03-24T14:25:57.115Z,9.94
2018-03-24T14:27:24.512Z,9.91
2018-03-24T14:28:51.674Z,9.89
2018-03-24T14:30:18.916Z,9.88
2018-03-24T14:31:47.064Z,9.85
2018-03-24T14:33:14.394Z,9.80
2018-03-24T14:34:40.554Z,9.76
2018-03-24T14:36:08.986Z,9.62
2018-03-24T14:37:35.337Z,9.67
2018-03-24T14:39:02.709Z,9.72
2018-03-24T14:40:30.065Z,9.69
2018-03-24T14:41:57.426Z,9.64
2018-03-24T14:43:24.376Z,9.69
2018-03-24T14:44:51.669Z,9.64
2018-03-24T14:46:18.953Z,9.59
2018-03-24T14:47:47.299Z,9.59
2018-03-24T14:49:14.693Z,9.59
2018-03-24T14:50:40.901Z,9.61
2018-03-24T14:52:08.230Z,9.57
2018-03-24T14:53:36.557Z,9.51
2018-03-24T14:55:03.859Z,9.45
2018-03-24T14:56:30.291Z,9.39
2018-03-24T14:57:58.911Z,9.36
2018-03-24T14:59:26.444Z,9.35
2018-03-24T15:00:53.684Z,9.37
2018-03-24T15:02:20.981Z,9.38
2018-03-24T15:03:47.275Z,9.37
2018-03-24T15:05:14.652Z,9.38
2018-03-24T15:06:42.889Z,9.32
2018-03-24T15:08:10.207Z,9.32
2018-03-24T15:09:36.609Z,9.30
2018-03-24T15:11:05.016Z,9.30
2018-03-24T15:12:31.329Z,9.31
2018-03-24T15:13:58.441Z,9.36
2018-03-24T15:15:25.879Z,9.29
2018-03-24T15:16:53.223Z,9.30
2018-03-24T15:18:20.512Z,9.30
2018-03-24T15:19:47.777Z,9.34
2018-03-24T15:21:15.126Z,9.37
2018-03-24T15:22:43.386Z,9.33
2018-03-24T15:24:10.690Z,9.29
2018-03-24T15:25:36.928Z,9.30
2018-03-24T15:27:04.257Z,9.29
2018-03-24T15:28:31.610Z,9.32
2018-03-24T15:29:59.912Z,9.32
2018-03-24T15:31:26.174Z,9.27
2018-03-24T15:32:53.590Z,9.25
2018-03-24T15:34:20.923Z,9.22
2018-03-24T15:35:49.224Z,9.22
2018-03-24T15:37:15.552Z,9.19
2018-03-24T15:38:43.674Z,9.15
2018-03-24T15:40:10.203Z,9.13
2018-03-24T15:41:38.483Z,9.10
2018-03-24T15:43:04.928Z,9.09
2018-03-24T15:44:32.226Z,9.05
2018-03-24T15:45:59.469Z,9.00
2018-03-24T15:47:27.886Z,8.93
2018-03-24T15:48:55.253Z,8.89
2018-03-24T15:50:21.535Z,8.85
2018-03-24T15:51:49.871Z,8.80
2018-03-24T15:53:15.906Z,8.77
2018-03-24T15:54:43.149Z,8.75
2018-03-24T15:56:10.313Z,8.74
2018-03-24T15:57:37.651Z,8.74
2018-03-24T15:59:04.989Z,8.75
2018-03-24T16:00:33.404Z,8.72
2018-03-24T16:01:59.806Z,8.71
2018-03-24T16:03:27.020Z,8.68
2018-03-24T16:04:54.191Z,8.66
2018-03-24T16:06:22.630Z,8.61
2018-03-24T16:07:49.021Z,8.59
2018-03-24T16:09:16.320Z,8.56
2018-03-24T16:10:43.672Z,8.54
2018-03-24T16:12:11.824Z,8.51
2018-03-24T16:13:39.147Z,8.50
2018-03-24T16:15:05.038Z,8.49
2018-03-24T16:16:32.388Z,8.49
2018-03-24T16:17:59.621Z,8.49
2018-03-24T16:19:27.991Z,8.48
2018-03-24T16:20:54.203Z,8.50
2018-03-24T16:22:21.590Z,8.51
2018-03-24T16:23:49.842Z,8.51
2018-03-24T16:25:16.197Z,8.50
2018-03-24T16:26:43.478Z,8.50
2018-03-24T16:28:10.550Z,8.49
2018-03-24T16:29:40.839Z,8.48
2018-03-24T16:31:05.163Z,8.46
2018-03-24T16:32:32.542Z,8.44
2018-03-24T16:34:00.874Z,8.41
2018-03-24T16:35:27.173Z,8.37
2018-03-24T16:36:54.447Z,8.31
2018-03-24T16:38:21.752Z,8.27
2018-03-24T16:39:50.009Z,8.23
2018-03-24T16:41:16.279Z,8.21
2018-03-24T16:42:43.489Z,8.20
2018-03-24T16:44:11.719Z,8.19
2018-03-24T16:45:38.780Z,8.15
2018-03-24T16:47:05.169Z,8.12
2018-03-24T16:48:32.486Z,8.08
2018-03-24T16:49:59.877Z,8.05
2018-03-24T16:51:27.205Z,8.04
2018-03-24T16:52:54.422Z,8.02
2018-03-24T16:54:22.724Z,7.99
2018-03-24T16:55:50.021Z,7.98
2018-03-24T16:57:17.115Z,7.97
2018-03-24T16:58:42.967Z,7.93
2018-03-24T17:00:10.800Z,7.91
2018-03-24T17:01:37.072Z,7.88
2018-03-24T17:03:05.142Z,7.88
2018-03-24T17:04:31.438Z,7.84
2018-03-24T17:05:58.673Z,7.85
2018-03-24T17:07:25.965Z,7.80
2018-03-24T17:08:54.124Z,7.77
2018-03-24T17:10:21.095Z,7.72
2018-03-24T17:11:48.369Z,7.67
2018-03-24T17:13:15.614Z,7.64
2018-03-24T17:14:41.824Z,7.62
2018-03-24T17:16:08.944Z,7.58
2018-03-24T17:17:36.316Z,7.55
2018-03-24T17:19:03.530Z,7.54
2018-03-24T17:20:30.808Z,7.52
2018-03-24T17:21:57.873Z,7.49
2018-03-24T17:23:26.147Z,7.45
2018-03-24T17:24:52.376Z,7.38
2018-03-24T17:26:19.496Z,7.33
2018-03-24T17:27:46.817Z,7.23
2018-03-24T17:29:13.969Z,7.14
2018-03-24T17:30:42.185Z,7.05
2018-03-24T17:32:08.384Z,7.01
2018-03-24T17:33:36.643Z,6.99
2018-03-24T17:35:02.828Z,6.99
2018-03-24T17:36:31.004Z,6.95
2018-03-24T17:37:57.139Z,6.92
2018-03-24T17:39:24.469Z,6.88
2018-03-24T17:40:51.761Z,6.84
2018-03-24T17:42:20.100Z,6.79
2018-03-24T17:43:46.322Z,6.77
2018-03-24T17:45:13.574Z,6.74
2018-03-24T17:46:40.694Z,6.72
2018-03-24T17:48:07.937Z,6.67
2018-03-24T17:49:36.217Z,6.61
2018-03-24T17:51:03.486Z,6.56
2018-03-24T17:52:29.713Z,6.52
2018-03-24T17:53:57.920Z,6.50
2018-03-24T17:55:25.269Z,6.48
2018-03-24T17:56:52.344Z,6.48
2018-03-24T17:58:19.669Z,6.47
2018-03-24T17:59:45.964Z,6.45
2018-03-24T18:01:14.006Z,6.41
2018-03-24T18:02:40.922Z,6.38
2018-03-24T18:04:07.105Z,6.36
2018-03-24T18:05:34.474Z,6.32
2018-03-24T18:07:01.735Z,6.31
2018-03-24T18:08:29.018Z,6.33
2018-03-24T18:09:56.144Z,6.38
2018-03-24T18:11:23.421Z,6.40
2018-03-24T18:12:50.654Z,6.43
2018-03-24T18:14:18.797Z,6.46
2018-03-24T18:15:46.064Z,6.48
2018-03-24T18:17:12.471Z,6.48
2018-03-24T18:18:39.558Z,6.49
2018-03-24T18:20:06.969Z,6.49
2018-03-24T18:21:34.133Z,6.49
2018-03-24T18:23:02.372Z,6.46
2018-03-24T18:24:28.636Z,6.35
2018-03-24T18:25:55.734Z,6.23
2018-03-24T18:27:23.932Z,6.10
2018-03-24T18:28:50.140Z,6.00
2018-03-24T18:30:17.442Z,5.90
2018-03-24T18:31:44.616Z,5.85
2018-03-24T18:33:11.586Z,5.81
2018-03-24T18:34:38.772Z,5.83
2018-03-24T18:36:07.145Z,5.87
2018-03-24T18:37:33.607Z,5.90
2018-03-24T18:39:00.647Z,5.92
2018-03-24T18:40:27.827Z,5.92
2018-03-24T18:41:55.113Z,5.90
2018-03-24T18:43:22.353Z,5.87
2018-03-24T18:44:50.613Z,5.83
2018-03-24T18:46:16.919Z,5.78
2018-03-24T18:47:45.081Z,5.72
2018-03-24T18:49:11.308Z,5.64
2018-03-24T18:50:38.631Z,5.61
2018-03-24T18:52:05.648Z,5.62
2018-03-24T18:53:32.929Z,5.62
2018-03-24T18:55:01.137Z,5.60
2018-03-24T18:56:27.451Z,5.58
2018-03-24T18:57:54.693Z,5.58
2018-03-24T18:59:22.876Z,5.58
2018-03-24T19:00:49.187Z,5.59
2018-03-24T19:02:16.323Z,5.57
2018-03-24T19:03:43.513Z,5.56
2018-03-24T19:05:11.562Z,5.56
2018-03-24T19:06:37.956Z,5.56
2018-03-24T19:08:04.991Z,5.55
2018-03-24T19:09:32.332Z,5.55
2018-03-24T19:11:00.568Z,5.53
2018-03-24T19:12:26.806Z,5.51
2018-03-24T19:13:53.984Z,5.50
2018-03-24T19:15:21.150Z,5.48